Brighton, MI (48116)

3:53 AM EDT on July 31, 2016 (GMT -0400)
Lake of the Pines - Proper Install | | Change Station

Elev 938 ft 42.53 °N, 83.74 °W | Updated 17 seconds ago

Overcast
Overcast
64.0 °F
Feels Like 64.0 °F
N
0.0
Wind Variable Wind from North
Gusts 0.0 mph

Today
High -- | Low -- °F
--% Chance of Precip.
Yesterday
High -- | Low -- °F
Precip. -- in
Pressure 29.99 in
Visibility 10.0 miles
Clouds Scattered Clouds 500 ft
Overcast 4200 ft
Dew Point 63 °F
Humidity 97%
Rainfall 0.00 in
Snow Depth Not available.
6:26 AM 8:55 PM
Waning Crescent, 8% visible
METAR KOZW 310734Z AUTO 00000KT 10SM SCT005 OVC042 19/18 A2999 RMK AO2 T01850180
Pressure 29.99 in
Visibility 10.0 miles
Clouds Scattered Clouds 500 ft
Overcast 4200 ft
Dew Point 63 °F
Humidity 97%
Rainfall 0.00 in
Snow Depth Not available.
6:26 AM 8:55 PM
Waning Crescent, 8% visible
METAR KOZW 310734Z AUTO 00000KT 10SM SCT005 OVC042 19/18 A2999 RMK AO2 T01850180

10-Day Weather Forecast

Almanac

Astronomy

Jul. 31, 2016 Rise Set
Actual Time
Civil Twilight
Nautical Twilight
Astronomical Twilight
Moon
Length of Visible Light
Length of Day
Tomorrow will be .
, % of the Moon is Illuminated

Today's Extremes

State Highs State Lows

Community

WunderPhotos

Upload Photos

1,928,768 photos uploaded!

WunderBlog® & News

Nearby

Air Quality

  Air Quality AQ Index Pollutant
Not available.

Snow Depth

Station Depth Elevation

Earthquake Activity

City Distance Mag. Time & Date
Minimum magnitude displayed is 2.5.

Coastal Water Temperatures

Place Temperature

Stations

Nearby Weather Stations

Station Location Temp. Windchill Dew Point Humidity Wind Precip. Elev Updated Type
                   

Watches & Warnings

There are currently no watches in effect.